Weather reports worldwide

Advertisment
Leuchtturm Kiel, Germany (10044): temperature & dewpoint: 12.01.2020 12:00:00 - 18.01.2020 12:00:00 (CET)Leuchtturm Kiel, Germany (10044): water temperature: 12.01.2020 12:00:00 - 18.01.2020 12:00:00 (CET)Leuchtturm Kiel, Germany (10044): wind speed & gusts: 12.01.2020 12:00:00 - 18.01.2020 12:00:00 (CET)Leuchtturm Kiel, Germany (10044): wind direction: 12.01.2020 12:00:00 - 18.01.2020 12:00:00 (CET)Leuchtturm Kiel, Germany (10044): reduced air pressure: 12.01.2020 12:00:00 - 18.01.2020 12:00:00 (CET)Leuchtturm Kiel, Germany (10044): sunshine duration: 12.01.2020 12:00:00 - 18.01.2020 12:00:00 (CET)
Date & Time tt [°C] td [°C] tw [°C] ff [km/h] ff [kn] fx [km/h] fx [kn] dd ppp [hPa] sd [min]
18.01.2020 12:00:00 5,2 2,0 5,9 53 28 68 37 SW 1016,5 8
18.01.2020 11:00:00 5,1 1,9 5,9 55 30 77 42 SW 1016,2 6
18.01.2020 10:00:00 5,0 1,8 5,9 64 35 83 45 SW 1015,6 24
18.01.2020 09:00:00 5,1 2,2 5,9 58 31 71 39 SW 1015,0 0
18.01.2020 08:00:00 5,3 2,2 6,0 58 32 74 40 SW 1014,9 0
18.01.2020 07:00:00 5,4 2,2 6,0 57 31 74 40 SW 1014,2 0
18.01.2020 06:00:00 5,6 2,5 6,0 52 28 74 40 WSW 1013,9 0
18.01.2020 05:00:00 5,9 3,0 6,0 55 30 69 37 WSW 1013,5 0
18.01.2020 04:00:00 5,8 3,5 6,0 53 29 74 40 SW 1013,0 0
18.01.2020 03:00:00 6,2 3,4 6,0 55 30 69 37 SW 1012,5 0
18.01.2020 02:00:00 7,4 3,6 6,0 46 25 62 33 SW 1012,4 0
18.01.2020 01:00:00 7,9 5,2 6,0 42 23 53 29 SW 1011,8 0
18.01.2020 00:00:00 7,9 6,1 6,0 37 20 49 26 SW 1011,6 0
17.01.2020 23:00:00 7,7 6,8 6,0 39 21 46 25 SW 1011,5 0
17.01.2020 22:00:00 7,5 6,4 6,0 36 19 42 23 SW 1011,3 0
17.01.2020 21:00:00 7,9 6,1 6,0 34 19 44 24 SSW 1011,3 0
17.01.2020 20:00:00 8,5 5,4 6,0 40 22 51 27 SW 1011,5 0
17.01.2020 19:00:00 8,9 4,8 5,9 38 21 48 26 SSW 1011,6 0
17.01.2020 18:00:00 8,8 4,4 5,9 26 14 29 16 S 1011,9 0
17.01.2020 17:00:00 9,1 3,9 5,9 26 14 30 16 S 1012,0 0
17.01.2020 16:00:00 9,8 4,1 5,9 27 15 33 18 S 1011,9 47
17.01.2020 15:00:00 9,8 4,0 5,9 30 16 38 21 S 1012,0 60
17.01.2020 14:00:00 9,4 3,7 5,9 34 19 42 23 S 1012,8 57
17.01.2020 13:00:00 8,6 3,5 5,9 37 20 53 28 S 1013,7 57
17.01.2020 12:00:00 8,2 3,4 5,9 49 27 56 30 S 1013,7 60
17.01.2020 11:00:00 7,9 3,4 5,9 39 21 49 26 S 1014,8 51
17.01.2020 10:00:00 7,0 3,4 5,9 34 19 50 27 S 1015,6 36
17.01.2020 09:00:00 6,5 3,4 5,9 42 23 46 25 S 1016,0 3
17.01.2020 08:00:00 6,7 3,6 5,9 40 22 46 25 S 1016,2 0
17.01.2020 07:00:00 6,8 3,7 5,9 35 19 49 27 S 1016,7 0
17.01.2020 06:00:00 6,8 3,7 5,9 39 21 59 32 S 1017,2 0
17.01.2020 05:00:00 6,8 3,9 5,9 47 25 58 31 S 1017,8 0
17.01.2020 04:00:00 6,1 3,8 5,9 36 20 43 23 S 1019,0 0
17.01.2020 03:00:00 6,1 3,8 5,9 29 16 39 21 S 1019,8 0
17.01.2020 02:00:00 6,3 3,9 5,9 31 17 40 21 S 1020,5 0
17.01.2020 01:00:00 6,5 3,7 6,0 36 19 40 21 S 1020,8 0
17.01.2020 00:00:00 6,4 3,5 6,0 33 18 36 20 S 1021,5 0
16.01.2020 23:00:00 6,5 3,5 6,0 31 17 41 22 S 1021,8 0
16.01.2020 22:00:00 6,6 3,2 6,0 39 21 54 29 S 1022,7 0
16.01.2020 21:00:00 6,4 3,4 6,0 38 20 44 24 S 1023,2 0
16.01.2020 20:00:00 6,4 3,7 6,0 39 21 44 24 S 1023,9 0
16.01.2020 19:00:00 6,3 3,8 6,0 29 16 34 18 S 1024,3 0
16.01.2020 18:00:00 6,3 4,0 6,0 28 15 32 17 S 1024,8 0
16.01.2020 17:00:00 7,0 4,1 6,0 28 15 31 17 S 1024,8 0
16.01.2020 16:00:00 7,2 4,4 6,0 22 12 33 18 SSW 1025,0 11
16.01.2020 15:00:00 7,5 4,3 6,1 25 14 32 17 S 1024,7 46
16.01.2020 14:00:00 7,6 4,3 6,0 30 16 38 21 SW 1024,9 60
16.01.2020 13:00:00 6,9 4,1 6,1 38 20 47 25 SW 1025,0 60
16.01.2020 12:00:00 6,7 4,0 6,1 39 21 50 27 SW 1024,8 60
16.01.2020 11:00:00 6,1 3,9 6,2 43 23 55 30 SW 1024,6 51
16.01.2020 10:00:00 5,8 3,8 6,2 42 23 50 27 SW 1023,8 36
16.01.2020 09:00:00 5,8 3,8 6,2 42 23 56 30 SW 1023,0 0
16.01.2020 08:00:00 6,7 4,0 6,2 47 26 62 34 SW 1022,0 0
16.01.2020 07:00:00 6,8 4,2 6,2 45 24 65 35 SW 1021,4 0
16.01.2020 06:00:00 7,4 4,2 6,2 47 25 60 32 WSW 1020,5 0
16.01.2020 05:00:00 7,2 4,2 6,2 51 28 70 38 WSW 1019,7 0
16.01.2020 04:00:00 7,3 4,2 6,2 53 29 67 36 WSW 1018,5 0
16.01.2020 03:00:00 7,1 4,3 6,2 48 26 60 33 WSW 1018,1 0
16.01.2020 02:00:00 6,6 4,2 6,2 50 27 65 35 WSW 1017,4 0
16.01.2020 01:00:00 6,6 3,8 6,3 52 28 61 33 WSW 1016,3 0
16.01.2020 00:00:00 6,6 3,7 6,3 46 25 59 32 WSW 1015,3 0
15.01.2020 23:00:00 6,7 3,7 6,3 41 22 48 26 WSW 1014,2 0
15.01.2020 22:00:00 6,9 3,8 6,3 32 18 45 24 WSW 1013,1 0
15.01.2020 21:00:00 6,9 4,0 6,2 37 20 59 32 W 1011,7 0
15.01.2020 20:00:00 8,3 5,3 6,0 50 27 88 47 W 1009,5 0
15.01.2020 19:00:00 10,5 6,2 6,0 55 30 85 46 SW 1007,7 0
15.01.2020 18:00:00 11,9 5,5 6,0 60 33 98 53 SW 1006,8 0
15.01.2020 17:00:00 12,0 5,5 5,9 84 45 101 54 SW 1006,0 0
15.01.2020 16:00:00 12,1 4,9 5,9 59 32 76 41 SW 1005,8 0
15.01.2020 15:00:00 11,8 5,5 5,9 48 26 78 42 SW 1005,5 0
15.01.2020 14:00:00 11,6 5,5 5,9 58 31 83 45 SW 1005,6 4
15.01.2020 13:00:00 12,1 5,7 5,9 64 34 77 42 SW 1005,5 0
15.01.2020 12:00:00 11,9 5,7 5,9 66 35 80 43 SW 1004,9 1
15.01.2020 11:00:00 11,7 5,7 5,9 63 34 84 45 SSW 1004,9 0
15.01.2020 10:00:00 11,8 5,9 5,8 66 36 85 46 SW 1004,4 0
15.01.2020 09:00:00 11,6 6,4 5,8 64 34 83 45 SSW 1003,5 0
15.01.2020 08:00:00 10,9 6,8 5,8 60 33 75 41 SSW 1003,1 0
15.01.2020 07:00:00 10,6 7,0 5,8 56 31 89 48 SSW 1003,0 0
15.01.2020 06:00:00 11,1 7,1 5,8 68 37 91 49 SW 1002,4 0
15.01.2020 05:00:00 10,8 7,4 5,8 69 37 96 52 SW 1002,0 0
15.01.2020 04:00:00 11,0 7,4 5,8 73 40 95 51 SW 1001,6 0
15.01.2020 03:00:00 11,5 7,1 5,7 81 44 103 56 SW 1001,1 0
15.01.2020 02:00:00 11,4 7,0 5,7 76 41 94 51 SW 1001,0 0
15.01.2020 01:00:00 11,3 7,1 5,7 75 41 98 53 SSW 1000,5 0
15.01.2020 00:00:00 11,1 7,0 5,7 73 40 92 50 SSW 1000,3 0
14.01.2020 23:00:00 10,9 6,7 5,7 70 38 84 46 SSW 1000,2 0
14.01.2020 22:00:00 10,1 6,0 5,7 67 36 91 49 SSW 1000,2 0
14.01.2020 21:00:00 9,4 6,3 5,7 62 33 80 43 SSW 1000,3 0
14.01.2020 20:00:00 9,2 6,5 5,6 54 29 68 37 S 1001,2 0
14.01.2020 19:00:00 9,0 7,0 5,6 48 26 56 31 S 1002,0 0
14.01.2020 18:00:00 9,2 6,8 5,6 40 21 46 25 S 1002,8 0
14.01.2020 17:00:00 8,8 6,3 5,6 32 18 45 24 SSW 1003,1 0
14.01.2020 16:00:00 9,0 5,7 5,6 43 23 49 27 SW 1003,4 0
14.01.2020 15:00:00 9,0 5,7 5,6 36 20 49 26 SW 1003,0 44
14.01.2020 14:00:00 8,7 5,1 5,7 41 22 51 28 WSW 1002,7 58
14.01.2020 13:00:00 7,7 4,7 5,7 37 20 48 26 SW 1002,6 11
14.01.2020 12:00:00 7,4 4,5 5,7 41 22 69 37 WSW 1002,0 0
14.01.2020 11:00:00 8,0 6,9 5,7 59 32 72 39 SSW 1000,6 0
14.01.2020 10:00:00 8,1 6,5 5,7 62 33 74 40 SSW 1000,0 0
14.01.2020 09:00:00 8,1 6,4 5,7 59 32 74 40 SSW 999,8 0
14.01.2020 08:00:00 7,2 6,0 5,7 49 27 63 34 S 1000,4 0
14.01.2020 07:00:00 6,6 5,1 5,6 55 30 67 36 S 1000,7 0
14.01.2020 06:00:00 6,3 4,1 5,6 50 27 73 39 S 1001,3 0
14.01.2020 05:00:00 6,8 3,4 5,6 58 31 73 40 S 1001,6 0
14.01.2020 04:00:00 6,3 3,1 5,6 56 30 64 35 S 1002,8 0
14.01.2020 03:00:00 6,1 2,9 5,6 51 28 63 34 S 1004,3 0
14.01.2020 02:00:00 5,7 2,6 5,6 48 26 60 33 S 1005,4 0
14.01.2020 01:00:00 5,5 2,6 5,6 49 27 69 37 S 1006,6 0
14.01.2020 00:00:00 5,5 2,6 5,6 53 29 63 34 S 1007,6 0
13.01.2020 23:00:00 5,1 3,0 5,6 46 25 55 30 S 1009,4 0
13.01.2020 22:00:00 5,2 3,2 5,6 42 23 51 27 S 1010,1 0
13.01.2020 21:00:00 5,2 3,3 5,6 37 20 43 23 S 1011,1 0
13.01.2020 20:00:00 5,4 3,5 5,7 34 18 40 22 S 1012,3 0
13.01.2020 19:00:00 6,0 3,8 5,7 32 17 36 20 S 1013,1 0
13.01.2020 18:00:00 6,1 4,0 5,7 23 12 29 16 S 1013,9 0
13.01.2020 17:00:00 6,5 4,1 5,7 25 14 31 17 SSW 1014,2 0
13.01.2020 16:00:00 6,6 3,9 5,7 25 13 35 19 SSW 1014,4 0
13.01.2020 15:00:00 6,5 3,9 5,7 32 17 37 20 SW 1014,9 0
13.01.2020 14:00:00 6,3 4,2 5,7 34 18 47 25 SW 1015,6 3
13.01.2020 13:00:00 6,0 3,7 5,6 37 20 47 26 SW 1016,1 27
13.01.2020 12:00:00 5,7 4,0 5,6 39 21 48 26 SSW 1016,6 14
13.01.2020 11:00:00 5,6 4,0 5,6 35 19 45 25 SSW 1017,0 8
13.01.2020 10:00:00 5,3 3,9 5,6 35 19 44 24 SSW 1017,1 0
13.01.2020 09:00:00 5,8 4,0 5,6 37 20 45 24 SW 1017,0 0
13.01.2020 08:00:00 5,9 4,0 5,6 30 16 43 23 SW 1017,1 0
13.01.2020 07:00:00 6,0 4,0 5,6 35 19 45 24 WSW 1017,0 0
13.01.2020 06:00:00 6,1 4,4 5,6 30 16 36 20 SW 1017,0 0
13.01.2020 05:00:00 6,2 4,5 5,6 29 15 36 20 WSW 1016,9 0
13.01.2020 04:00:00 6,6 4,6 5,6 32 17 41 22 WSW 1016,9 0
13.01.2020 03:00:00 6,9 4,7 5,6 35 19 44 24 W 1016,5 0
13.01.2020 02:00:00 7,0 5,2 5,6 32 17 41 22 W 1016,2 0
13.01.2020 01:00:00 7,1 5,6 5,6 34 18 40 22 W 1015,5 0
13.01.2020 00:00:00 6,8 6,2 5,6 24 13 32 17 W 1014,8 0
12.01.2020 23:00:00 7,2 6,1 5,6 26 14 40 22 W 1014,0 0
12.01.2020 22:00:00 7,4 5,8 5,7 34 19 47 25 W 1013,0 0
12.01.2020 21:00:00 7,4 6,1 5,7 36 19 56 31 W 1011,9 0
12.01.2020 20:00:00 7,6 6,1 5,7 47 25 71 39 WSW 1010,8 0
12.01.2020 19:00:00 7,3 6,1 5,7 58 31 71 38 WSW 1009,8 0
12.01.2020 18:00:00 6,4 5,5 5,7 54 29 69 37 SW 1010,0 0
12.01.2020 17:00:00 5,5 4,9 5,7 49 27 64 34 SW 1010,6 0
12.01.2020 16:00:00 5,5 4,2 5,7 50 27 62 34 SW 1011,1 0
12.01.2020 15:00:00 5,4 4,0 5,7 54 29 62 34 SW 1011,6 0
12.01.2020 14:00:00 5,2 4,0 5,7 51 28 66 36 SW 1012,6 0
12.01.2020 13:00:00 5,1 4,0 5,7 54 29 67 36 SW 1012,9 0
12.01.2020 12:00:00 5,3 3,9 5,7 54 29 67 36 SW 1013,3 0

tt = temperature
td = dewpoint
tw = water temperature
ff = wind speed
fx = gusts
dd = wind direction
ppp = reduced air pressure
sd = sunshine duration

Next stations